sensor_id;sensor_type;location;lat;lon;timestamp;temperature;humidity
74869;DHT22;63419;42.262;12.210;2023-02-28T00:01:33;5.00;99.90
74869;DHT22;63419;42.262;12.210;2023-02-28T00:04:00;5.00;99.90
74869;DHT22;63419;42.262;12.210;2023-02-28T00:06:28;5.00;99.90
74869;DHT22;63419;42.262;12.210;2023-02-28T00:08:56;5.10;99.90
74869;DHT22;63419;42.262;12.210;2023-02-28T00:11:23;5.10;99.90
74869;DHT22;63419;42.262;12.210;2023-02-28T00:13:50;5.20;99.90
74869;DHT22;63419;42.262;12.210;2023-02-28T00:16:20;5.20;99.90
74869;DHT22;63419;42.262;12.210;2023-02-28T00:18:50;5.20;99.90
74869;DHT22;63419;42.262;12.210;2023-02-28T00:21:18;5.20;99.90
74869;DHT22;63419;42.262;12.210;2023-02-28T00:23:47;5.20;99.90
74869;DHT22;63419;42.262;12.210;2023-02-28T00:26:14;5.30;99.90
74869;DHT22;63419;42.262;12.210;2023-02-28T00:28:42;5.30;99.90
74869;DHT22;63419;42.262;12.210;2023-02-28T00:31:09;5.30;99.90
74869;DHT22;63419;42.262;12.210;2023-02-28T00:33:36;5.30;99.90
74869;DHT22;63419;42.262;12.210;2023-02-28T00:36:09;5.30;99.90
74869;DHT22;63419;42.262;12.210;2023-02-28T00:38:38;5.30;99.90
74869;DHT22;63419;42.262;12.210;2023-02-28T00:41:07;5.40;99.90
74869;DHT22;63419;42.262;12.210;2023-02-28T00:43:37;5.40;99.90
74869;DHT22;63419;42.262;12.210;2023-02-28T00:46:06;5.40;99.90
74869;DHT22;63419;42.262;12.210;2023-02-28T00:48:33;5.40;99.90
74869;DHT22;63419;42.262;12.210;2023-02-28T00:51:01;5.50;99.90
74869;DHT22;63419;42.262;12.210;2023-02-28T00:53:29;5.50;99.90
74869;DHT22;63419;42.262;12.210;2023-02-28T00:55:57;5.60;99.90
74869;DHT22;63419;42.262;12.210;2023-02-28T00:58:25;5.60;99.90
74869;DHT22;63419;42.262;12.210;2023-02-28T01:00:53;5.70;99.90
74869;DHT22;63419;42.262;12.210;2023-02-28T01:03:21;5.70;99.90
74869;DHT22;63419;42.262;12.210;2023-02-28T01:05:49;5.70;99.90
74869;DHT22;63419;42.262;12.210;2023-02-28T01:08:17;5.70;99.90
74869;DHT22;63419;42.262;12.210;2023-02-28T01:10:45;5.80;99.90
74869;DHT22;63419;42.262;12.210;2023-02-28T01:13:13;5.80;99.90
74869;DHT22;63419;42.262;12.210;2023-02-28T01:15:45;5.70;99.90
74869;DHT22;63419;42.262;12.210;2023-02-28T01:18:18;5.80;99.90
74869;DHT22;63419;42.262;12.210;2023-02-28T01:20:45;5.80;99.90
74869;DHT22;63419;42.262;12.210;2023-02-28T01:23:13;5.80;99.90
74869;DHT22;63419;42.262;12.210;2023-02-28T01:25:41;5.80;99.90
74869;DHT22;63419;42.262;12.210;2023-02-28T01:28:08;5.90;99.90
74869;DHT22;63419;42.262;12.210;2023-02-28T01:30:35;5.90;99.90
74869;DHT22;63419;42.262;12.210;2023-02-28T01:33:02;5.90;99.90
74869;DHT22;63419;42.262;12.210;2023-02-28T01:35:33;5.90;99.90
74869;DHT22;63419;42.262;12.210;2023-02-28T01:38:02;6.00;99.90
74869;DHT22;63419;42.262;12.210;2023-02-28T01:40:47;6.00;99.90
74869;DHT22;63419;42.262;12.210;2023-02-28T01:43:27;6.00;99.90
74869;DHT22;63419;42.262;12.210;2023-02-28T01:45:57;6.00;99.90
74869;DHT22;63419;42.262;12.210;2023-02-28T01:48:29;6.00;99.90
74869;DHT22;63419;42.262;12.210;2023-02-28T01:51:05;5.90;99.90
74869;DHT22;63419;42.262;12.210;2023-02-28T01:53:53;6.00;99.90
74869;DHT22;63419;42.262;12.210;2023-02-28T01:56:35;6.00;99.90
74869;DHT22;63419;42.262;12.210;2023-02-28T01:59:03;6.00;99.90
74869;DHT22;63419;42.262;12.210;2023-02-28T02:01:32;6.10;99.90
74869;DHT22;63419;42.262;12.210;2023-02-28T02:04:02;6.10;99.90
74869;DHT22;63419;42.262;12.210;2023-02-28T02:06:37;6.10;99.90
74869;DHT22;63419;42.262;12.210;2023-02-28T02:09:12;6.00;99.90
74869;DHT22;63419;42.262;12.210;2023-02-28T02:11:46;6.10;99.90
74869;DHT22;63419;42.262;12.210;2023-02-28T02:14:36;6.20;99.90
74869;DHT22;63419;42.262;12.210;2023-02-28T02:17:39;6.10;99.90
74869;DHT22;63419;42.262;12.210;2023-02-28T02:26:52;6.10;99.90
74869;DHT22;63419;42.262;12.210;2023-02-28T02:35:54;6.00;99.90
74869;DHT22;63419;42.262;12.210;2023-02-28T02:38:36;5.90;99.90
74869;DHT22;63419;42.262;12.210;2023-02-28T02:41:33;5.80;99.90
74869;DHT22;63419;42.262;12.210;2023-02-28T02:44:52;5.80;99.90
74869;DHT22;63419;42.262;12.210;2023-02-28T02:47:40;5.80;99.90
74869;DHT22;63419;42.262;12.210;2023-02-28T02:50:25;5.80;99.90
74869;DHT22;63419;42.262;12.210;2023-02-28T02:52:59;5.80;99.90
74869;DHT22;63419;42.262;12.210;2023-02-28T02:55:32;5.80;99.90
74869;DHT22;63419;42.262;12.210;2023-02-28T02:58:10;5.80;99.90
74869;DHT22;63419;42.262;12.210;2023-02-28T03:00:50;5.70;99.90
74869;DHT22;63419;42.262;12.210;2023-02-28T03:03:30;5.80;99.90
74869;DHT22;63419;42.262;12.210;2023-02-28T03:06:01;5.80;99.90
74869;DHT22;63419;42.262;12.210;2023-02-28T03:08:40;5.80;99.90
74869;DHT22;63419;42.262;12.210;2023-02-28T03:11:13;5.80;99.90
74869;DHT22;63419;42.262;12.210;2023-02-28T03:28:23;5.70;99.90
74869;DHT22;63419;42.262;12.210;2023-02-28T03:31:09;5.70;99.90
74869;DHT22;63419;42.262;12.210;2023-02-28T03:33:45;5.60;99.90
74869;DHT22;63419;42.262;12.210;2023-02-28T03:36:38;5.60;99.90
74869;DHT22;63419;42.262;12.210;2023-02-28T03:42:19;5.60;99.90
74869;DHT22;63419;42.262;12.210;2023-02-28T03:44:58;5.60;99.90
74869;DHT22;63419;42.262;12.210;2023-02-28T03:47:42;5.60;99.90
74869;DHT22;63419;42.262;12.210;2023-02-28T03:52:51;5.60;99.90
74869;DHT22;63419;42.262;12.210;2023-02-28T03:56:05;5.60;99.90
74869;DHT22;63419;42.262;12.210;2023-02-28T03:58:47;5.60;99.90
74869;DHT22;63419;42.262;12.210;2023-02-28T04:01:40;5.60;99.90
74869;DHT22;63419;42.262;12.210;2023-02-28T04:04:13;5.60;99.90
74869;DHT22;63419;42.262;12.210;2023-02-28T04:06:45;5.60;99.90
74869;DHT22;63419;42.262;12.210;2023-02-28T04:09:32;5.50;99.90
74869;DHT22;63419;42.262;12.210;2023-02-28T04:12:02;5.50;99.90
74869;DHT22;63419;42.262;12.210;2023-02-28T04:14:32;5.50;99.90
74869;DHT22;63419;42.262;12.210;2023-02-28T04:17:10;5.50;99.90
74869;DHT22;63419;42.262;12.210;2023-02-28T04:19:39;5.60;99.90
74869;DHT22;63419;42.262;12.210;2023-02-28T04:22:12;5.60;99.90
74869;DHT22;63419;42.262;12.210;2023-02-28T04:24:43;5.60;99.90
74869;DHT22;63419;42.262;12.210;2023-02-28T04:27:12;5.60;99.90
74869;DHT22;63419;42.262;12.210;2023-02-28T04:29:43;5.60;99.90
74869;DHT22;63419;42.262;12.210;2023-02-28T04:32:11;5.70;99.90
74869;DHT22;63419;42.262;12.210;2023-02-28T04:34:41;5.80;99.90
74869;DHT22;63419;42.262;12.210;2023-02-28T04:37:09;5.80;99.90
74869;DHT22;63419;42.262;12.210;2023-02-28T04:39:43;5.90;99.90
74869;DHT22;63419;42.262;12.210;2023-02-28T04:42:17;5.90;99.90
74869;DHT22;63419;42.262;12.210;2023-02-28T04:44:46;6.00;99.90
74869;DHT22;63419;42.262;12.210;2023-02-28T04:47:14;6.00;99.90
74869;DHT22;63419;42.262;12.210;2023-02-28T04:49:43;6.10;99.90
74869;DHT22;63419;42.262;12.210;2023-02-28T04:52:10;6.10;99.90
74869;DHT22;63419;42.262;12.210;2023-02-28T04:54:38;6.20;99.90
74869;DHT22;63419;42.262;12.210;2023-02-28T04:57:09;6.10;99.90
74869;DHT22;63419;42.262;12.210;2023-02-28T04:59:38;6.20;99.90
74869;DHT22;63419;42.262;12.210;2023-02-28T05:02:09;6.20;99.90
74869;DHT22;63419;42.262;12.210;2023-02-28T05:04:37;6.20;99.90
74869;DHT22;63419;42.262;12.210;2023-02-28T05:07:05;6.30;99.90
74869;DHT22;63419;42.262;12.210;2023-02-28T05:09:32;6.20;99.90
74869;DHT22;63419;42.262;12.210;2023-02-28T05:11:59;6.20;99.90
74869;DHT22;63419;42.262;12.210;2023-02-28T05:14:27;6.10;99.90
74869;DHT22;63419;42.262;12.210;2023-02-28T05:16:55;6.10;99.90
74869;DHT22;63419;42.262;12.210;2023-02-28T05:19:26;6.10;99.90
74869;DHT22;63419;42.262;12.210;2023-02-28T05:21:55;6.20;99.90
74869;DHT22;63419;42.262;12.210;2023-02-28T05:24:24;6.10;99.90
74869;DHT22;63419;42.262;12.210;2023-02-28T05:26:53;6.10;99.90
74869;DHT22;63419;42.262;12.210;2023-02-28T05:29:25;6.00;99.90
74869;DHT22;63419;42.262;12.210;2023-02-28T05:31:52;5.90;99.90
74869;DHT22;63419;42.262;12.210;2023-02-28T05:34:20;5.80;99.90
74869;DHT22;63419;42.262;12.210;2023-02-28T05:36:48;5.80;99.90
74869;DHT22;63419;42.262;12.210;2023-02-28T05:39:17;5.80;99.90
74869;DHT22;63419;42.262;12.210;2023-02-28T05:41:48;5.80;99.90
74869;DHT22;63419;42.262;12.210;2023-02-28T05:44:16;5.90;99.90
74869;DHT22;63419;42.262;12.210;2023-02-28T05:46:43;5.90;99.90
74869;DHT22;63419;42.262;12.210;2023-02-28T05:49:10;5.90;99.90
74869;DHT22;63419;42.262;12.210;2023-02-28T05:51:51;5.90;99.90
74869;DHT22;63419;42.262;12.210;2023-02-28T05:54:18;5.90;99.90
74869;DHT22;63419;42.262;12.210;2023-02-28T05:56:48;5.80;99.90
74869;DHT22;63419;42.262;12.210;2023-02-28T05:59:18;5.80;99.90
74869;DHT22;63419;42.262;12.210;2023-02-28T06:01:56;5.70;99.90
74869;DHT22;63419;42.262;12.210;2023-02-28T06:04:26;5.70;99.90
74869;DHT22;63419;42.262;12.210;2023-02-28T06:06:58;5.60;99.90
74869;DHT22;63419;42.262;12.210;2023-02-28T06:09:25;5.60;99.90
74869;DHT22;63419;42.262;12.210;2023-02-28T06:11:58;5.60;99.90
74869;DHT22;63419;42.262;12.210;2023-02-28T06:14:27;5.60;99.90
74869;DHT22;63419;42.262;12.210;2023-02-28T06:16:55;5.60;99.90
74869;DHT22;63419;42.262;12.210;2023-02-28T06:19:25;5.70;99.90
74869;DHT22;63419;42.262;12.210;2023-02-28T06:21:55;5.70;99.90
74869;DHT22;63419;42.262;12.210;2023-02-28T06:24:26;5.80;99.90
74869;DHT22;63419;42.262;12.210;2023-02-28T06:26:57;5.80;99.90
74869;DHT22;63419;42.262;12.210;2023-02-28T06:29:34;5.90;99.90
74869;DHT22;63419;42.262;12.210;2023-02-28T06:32:10;5.90;99.90
74869;DHT22;63419;42.262;12.210;2023-02-28T06:34:39;5.90;99.90
74869;DHT22;63419;42.262;12.210;2023-02-28T06:37:08;5.90;99.90
74869;DHT22;63419;42.262;12.210;2023-02-28T06:39:37;6.00;99.90
74869;DHT22;63419;42.262;12.210;2023-02-28T06:42:07;6.00;99.90
74869;DHT22;63419;42.262;12.210;2023-02-28T06:44:35;6.10;99.90
74869;DHT22;63419;42.262;12.210;2023-02-28T06:47:09;6.20;99.90
74869;DHT22;63419;42.262;12.210;2023-02-28T06:49:37;6.30;99.90
74869;DHT22;63419;42.262;12.210;2023-02-28T06:52:07;6.30;99.90
74869;DHT22;63419;42.262;12.210;2023-02-28T06:54:37;6.30;99.90
74869;DHT22;63419;42.262;12.210;2023-02-28T06:57:04;6.30;99.90
74869;DHT22;63419;42.262;12.210;2023-02-28T06:59:36;6.30;99.90
74869;DHT22;63419;42.262;12.210;2023-02-28T07:02:08;6.30;99.90
74869;DHT22;63419;42.262;12.210;2023-02-28T07:04:35;6.30;99.90
74869;DHT22;63419;42.262;12.210;2023-02-28T07:07:05;6.40;99.90
74869;DHT22;63419;42.262;12.210;2023-02-28T07:09:35;6.40;99.90
74869;DHT22;63419;42.262;12.210;2023-02-28T07:12:02;6.40;99.90
74869;DHT22;63419;42.262;12.210;2023-02-28T07:14:29;6.50;99.90
74869;DHT22;63419;42.262;12.210;2023-02-28T07:16:57;6.50;99.90
74869;DHT22;63419;42.262;12.210;2023-02-28T07:19:27;6.60;99.90
74869;DHT22;63419;42.262;12.210;2023-02-28T07:21:58;6.60;99.90
74869;DHT22;63419;42.262;12.210;2023-02-28T07:24:32;6.70;99.90
74869;DHT22;63419;42.262;12.210;2023-02-28T07:27:00;6.80;99.90
74869;DHT22;63419;42.262;12.210;2023-02-28T07:29:29;6.70;99.90
74869;DHT22;63419;42.262;12.210;2023-02-28T07:32:00;6.70;99.90
74869;DHT22;63419;42.262;12.210;2023-02-28T07:34:28;6.70;99.90
74869;DHT22;63419;42.262;12.210;2023-02-28T07:36:56;6.80;99.90
74869;DHT22;63419;42.262;12.210;2023-02-28T07:39:25;6.90;99.90
74869;DHT22;63419;42.262;12.210;2023-02-28T07:41:54;7.10;99.90
74869;DHT22;63419;42.262;12.210;2023-02-28T07:44:23;7.20;99.90
74869;DHT22;63419;42.262;12.210;2023-02-28T07:46:52;7.20;99.90
74869;DHT22;63419;42.262;12.210;2023-02-28T07:49:21;7.30;99.90
74869;DHT22;63419;42.262;12.210;2023-02-28T07:51:49;7.40;99.90
74869;DHT22;63419;42.262;12.210;2023-02-28T07:54:19;7.40;99.90
74869;DHT22;63419;42.262;12.210;2023-02-28T07:56:46;7.60;99.90
74869;DHT22;63419;42.262;12.210;2023-02-28T07:59:22;7.60;99.90
74869;DHT22;63419;42.262;12.210;2023-02-28T08:01:54;7.70;99.90
74869;DHT22;63419;42.262;12.210;2023-02-28T08:04:26;7.80;99.90
74869;DHT22;63419;42.262;12.210;2023-02-28T08:06:56;7.80;99.90
74869;DHT22;63419;42.262;12.210;2023-02-28T08:09:29;7.90;99.90
74869;DHT22;63419;42.262;12.210;2023-02-28T08:12:00;8.10;99.90
74869;DHT22;63419;42.262;12.210;2023-02-28T08:14:30;8.20;99.90
74869;DHT22;63419;42.262;12.210;2023-02-28T08:16:58;8.30;99.90
74869;DHT22;63419;42.262;12.210;2023-02-28T08:19:33;8.40;99.90
74869;DHT22;63419;42.262;12.210;2023-02-28T08:22:00;8.70;99.90
74869;DHT22;63419;42.262;12.210;2023-02-28T08:24:29;8.70;99.90
74869;DHT22;63419;42.262;12.210;2023-02-28T08:26:57;8.80;99.90
74869;DHT22;63419;42.262;12.210;2023-02-28T08:29:27;8.80;99.90
74869;DHT22;63419;42.262;12.210;2023-02-28T08:31:55;9.00;99.90
74869;DHT22;63419;42.262;12.210;2023-02-28T08:34:24;9.10;99.90
74869;DHT22;63419;42.262;12.210;2023-02-28T08:36:51;9.20;99.90
74869;DHT22;63419;42.262;12.210;2023-02-28T08:39:20;9.20;99.90
74869;DHT22;63419;42.262;12.210;2023-02-28T08:42:01;9.30;99.90
74869;DHT22;63419;42.262;12.210;2023-02-28T08:44:34;9.30;99.90
74869;DHT22;63419;42.262;12.210;2023-02-28T08:47:04;9.40;99.90
74869;DHT22;63419;42.262;12.210;2023-02-28T08:49:34;9.60;99.90
74869;DHT22;63419;42.262;12.210;2023-02-28T08:52:06;9.80;99.90
74869;DHT22;63419;42.262;12.210;2023-02-28T08:54:33;9.90;99.90
74869;DHT22;63419;42.262;12.210;2023-02-28T08:57:02;10.10;99.90
74869;DHT22;63419;42.262;12.210;2023-02-28T08:59:30;10.10;99.90
74869;DHT22;63419;42.262;12.210;2023-02-28T09:01:57;10.20;99.90
74869;DHT22;63419;42.262;12.210;2023-02-28T09:04:25;10.30;99.90
74869;DHT22;63419;42.262;12.210;2023-02-28T09:06:53;10.40;99.90
74869;DHT22;63419;42.262;12.210;2023-02-28T09:09:26;10.50;99.90
74869;DHT22;63419;42.262;12.210;2023-02-28T09:11:57;10.70;99.90
74869;DHT22;63419;42.262;12.210;2023-02-28T09:14:24;10.80;99.90
74869;DHT22;63419;42.262;12.210;2023-02-28T09:16:52;10.90;99.90
74869;DHT22;63419;42.262;12.210;2023-02-28T09:19:21;11.00;99.90
74869;DHT22;63419;42.262;12.210;2023-02-28T09:21:54;10.90;99.90
74869;DHT22;63419;42.262;12.210;2023-02-28T09:24:21;11.00;99.90
74869;DHT22;63419;42.262;12.210;2023-02-28T09:26:50;11.10;99.90
74869;DHT22;63419;42.262;12.210;2023-02-28T09:29:30;11.20;99.90
74869;DHT22;63419;42.262;12.210;2023-02-28T09:31:58;11.00;99.90
74869;DHT22;63419;42.262;12.210;2023-02-28T09:34:28;11.10;99.90
74869;DHT22;63419;42.262;12.210;2023-02-28T09:36:59;11.20;99.90
74869;DHT22;63419;42.262;12.210;2023-02-28T09:39:35;11.20;99.90
74869;DHT22;63419;42.262;12.210;2023-02-28T09:42:03;11.40;99.90
74869;DHT22;63419;42.262;12.210;2023-02-28T09:44:40;11.60;99.90
74869;DHT22;63419;42.262;12.210;2023-02-28T09:47:31;11.70;99.90
74869;DHT22;63419;42.262;12.210;2023-02-28T09:52:55;12.20;99.90
74869;DHT22;63419;42.262;12.210;2023-02-28T09:56:01;12.30;99.90
74869;DHT22;63419;42.262;12.210;2023-02-28T09:58:48;12.40;99.90
74869;DHT22;63419;42.262;12.210;2023-02-28T10:01:38;12.50;99.90
74869;DHT22;63419;42.262;12.210;2023-02-28T10:04:35;12.60;99.90
74869;DHT22;63419;42.262;12.210;2023-02-28T10:13:43;12.90;99.90
74869;DHT22;63419;42.262;12.210;2023-02-28T10:16:50;13.00;99.90
74869;DHT22;63419;42.262;12.210;2023-02-28T10:19:28;13.50;99.90
74869;DHT22;63419;42.262;12.210;2023-02-28T10:25:28;14.20;99.90
74869;DHT22;63419;42.262;12.210;2023-02-28T10:28:07;14.40;99.90
74869;DHT22;63419;42.262;12.210;2023-02-28T10:30:39;14.10;99.90
74869;DHT22;63419;42.262;12.210;2023-02-28T10:33:23;14.00;99.90
74869;DHT22;63419;42.262;12.210;2023-02-28T10:35:55;14.10;99.90
74869;DHT22;63419;42.262;12.210;2023-02-28T10:38:32;14.10;99.90
74869;DHT22;63419;42.262;12.210;2023-02-28T10:41:10;13.90;99.90
74869;DHT22;63419;42.262;12.210;2023-02-28T10:44:13;14.10;99.90
74869;DHT22;63419;42.262;12.210;2023-02-28T10:46:42;14.50;99.90
74869;DHT22;63419;42.262;12.210;2023-02-28T10:49:27;14.80;99.90
74869;DHT22;63419;42.262;12.210;2023-02-28T10:51:58;14.60;99.90
74869;DHT22;63419;42.262;12.210;2023-02-28T10:54:34;14.50;99.90
74869;DHT22;63419;42.262;12.210;2023-02-28T10:57:20;14.20;99.90
74869;DHT22;63419;42.262;12.210;2023-02-28T11:00:14;13.90;99.90
74869;DHT22;63419;42.262;12.210;2023-02-28T11:02:48;13.80;99.90
74869;DHT22;63419;42.262;12.210;2023-02-28T11:05:30;13.90;99.90
74869;DHT22;63419;42.262;12.210;2023-02-28T11:10:46;14.30;99.90
74869;DHT22;63419;42.262;12.210;2023-02-28T11:13:27;14.60;99.90
74869;DHT22;63419;42.262;12.210;2023-02-28T11:16:06;15.20;99.90
74869;DHT22;63419;42.262;12.210;2023-02-28T11:18:44;15.30;99.90
74869;DHT22;63419;42.262;12.210;2023-02-28T11:21:26;15.10;99.90
74869;DHT22;63419;42.262;12.210;2023-02-28T11:24:07;15.40;99.90
74869;DHT22;63419;42.262;12.210;2023-02-28T11:26:49;15.50;99.90
74869;DHT22;63419;42.262;12.210;2023-02-28T11:29:28;15.40;99.90
74869;DHT22;63419;42.262;12.210;2023-02-28T11:32:19;15.40;99.90
74869;DHT22;63419;42.262;12.210;2023-02-28T11:37:59;14.80;99.90
74869;DHT22;63419;42.262;12.210;2023-02-28T11:40:39;15.60;99.90
74869;DHT22;63419;42.262;12.210;2023-02-28T11:43:38;16.20;99.90
74869;DHT22;63419;42.262;12.210;2023-02-28T11:51:28;16.40;99.70
74869;DHT22;63419;42.262;12.210;2023-02-28T11:54:23;15.80;99.90
74869;DHT22;63419;42.262;12.210;2023-02-28T11:57:17;15.40;99.90
74869;DHT22;63419;42.262;12.210;2023-02-28T12:02:47;15.70;99.90
74869;DHT22;63419;42.262;12.210;2023-02-28T12:06:01;15.90;99.90
74869;DHT22;63419;42.262;12.210;2023-02-28T12:16:59;15.30;99.90
74869;DHT22;63419;42.262;12.210;2023-02-28T12:26:07;14.50;99.90
74869;DHT22;63419;42.262;12.210;2023-02-28T12:28:59;14.10;99.90
74869;DHT22;63419;42.262;12.210;2023-02-28T12:31:38;13.80;99.90
74869;DHT22;63419;42.262;12.210;2023-02-28T12:34:22;13.70;99.90
74869;DHT22;63419;42.262;12.210;2023-02-28T12:36:58;13.70;99.90
74869;DHT22;63419;42.262;12.210;2023-02-28T12:39:40;14.00;99.90
74869;DHT22;63419;42.262;12.210;2023-02-28T12:42:31;14.60;99.90
74869;DHT22;63419;42.262;12.210;2023-02-28T12:45:17;14.90;99.90
74869;DHT22;63419;42.262;12.210;2023-02-28T12:48:02;15.60;99.90
74869;DHT22;63419;42.262;12.210;2023-02-28T12:50:34;16.10;99.90
74869;DHT22;63419;42.262;12.210;2023-02-28T13:00:03;15.90;99.90
74869;DHT22;63419;42.262;12.210;2023-02-28T13:03:00;15.20;99.90
74869;DHT22;63419;42.262;12.210;2023-02-28T13:05:46;15.00;99.90
74869;DHT22;63419;42.262;12.210;2023-02-28T13:11:49;14.70;99.90
74869;DHT22;63419;42.262;12.210;2023-02-28T13:19:43;15.30;99.90
74869;DHT22;63419;42.262;12.210;2023-02-28T13:24:55;15.20;99.90
74869;DHT22;63419;42.262;12.210;2023-02-28T13:36:32;14.90;99.90
74869;DHT22;63419;42.262;12.210;2023-02-28T13:42:34;15.00;99.90
74869;DHT22;63419;42.262;12.210;2023-02-28T13:58:56;13.30;99.90
74869;DHT22;63419;42.262;12.210;2023-02-28T14:05:05;12.50;99.90
74869;DHT22;63419;42.262;12.210;2023-02-28T14:07:50;11.80;99.90
74869;DHT22;63419;42.262;12.210;2023-02-28T14:10:29;11.50;99.90
74869;DHT22;63419;42.262;12.210;2023-02-28T14:16:21;11.10;99.90
74869;DHT22;63419;42.262;12.210;2023-02-28T14:19:00;10.90;99.90
74869;DHT22;63419;42.262;12.210;2023-02-28T14:21:50;10.90;99.90
74869;DHT22;63419;42.262;12.210;2023-02-28T14:33:38;10.40;99.90
74869;DHT22;63419;42.262;12.210;2023-02-28T14:36:35;10.40;99.90
74869;DHT22;63419;42.262;12.210;2023-02-28T14:39:11;10.50;99.90
74869;DHT22;63419;42.262;12.210;2023-02-28T14:41:47;10.30;99.90
74869;DHT22;63419;42.262;12.210;2023-02-28T14:44:26;10.30;99.90
74869;DHT22;63419;42.262;12.210;2023-02-28T14:47:04;10.20;99.90
74869;DHT22;63419;42.262;12.210;2023-02-28T14:49:47;10.20;99.90
74869;DHT22;63419;42.262;12.210;2023-02-28T14:52:17;10.20;99.90
74869;DHT22;63419;42.262;12.210;2023-02-28T14:54:59;10.20;99.90
74869;DHT22;63419;42.262;12.210;2023-02-28T14:57:54;10.20;99.90
74869;DHT22;63419;42.262;12.210;2023-02-28T15:00:27;10.00;99.90
74869;DHT22;63419;42.262;12.210;2023-02-28T15:03:00;9.90;99.90
74869;DHT22;63419;42.262;12.210;2023-02-28T15:05:56;10.00;99.90
74869;DHT22;63419;42.262;12.210;2023-02-28T15:08:27;10.00;99.90
74869;DHT22;63419;42.262;12.210;2023-02-28T15:11:02;10.10;99.90
74869;DHT22;63419;42.262;12.210;2023-02-28T15:13:43;10.20;99.90
74869;DHT22;63419;42.262;12.210;2023-02-28T15:16:40;10.20;99.90
74869;DHT22;63419;42.262;12.210;2023-02-28T15:19:28;10.10;99.90
74869;DHT22;63419;42.262;12.210;2023-02-28T15:22:04;10.20;99.90
74869;DHT22;63419;42.262;12.210;2023-02-28T15:24:48;10.00;99.90
74869;DHT22;63419;42.262;12.210;2023-02-28T15:27:27;10.10;99.90
74869;DHT22;63419;42.262;12.210;2023-02-28T15:30:06;10.00;99.90
74869;DHT22;63419;42.262;12.210;2023-02-28T15:35:41;10.10;99.90
74869;DHT22;63419;42.262;12.210;2023-02-28T15:38:23;10.00;99.90
74869;DHT22;63419;42.262;12.210;2023-02-28T15:40:57;10.00;99.90
74869;DHT22;63419;42.262;12.210;2023-02-28T15:43:37;9.90;99.90
74869;DHT22;63419;42.262;12.210;2023-02-28T15:46:10;9.90;99.90
74869;DHT22;63419;42.262;12.210;2023-02-28T15:48:51;9.80;99.90
74869;DHT22;63419;42.262;12.210;2023-02-28T15:51:33;9.70;99.90
74869;DHT22;63419;42.262;12.210;2023-02-28T15:54:10;9.60;99.90
74869;DHT22;63419;42.262;12.210;2023-02-28T15:56:49;9.60;99.90
74869;DHT22;63419;42.262;12.210;2023-02-28T15:59:30;9.60;99.90
74869;DHT22;63419;42.262;12.210;2023-02-28T16:02:18;9.60;99.90
74869;DHT22;63419;42.262;12.210;2023-02-28T16:07:42;9.50;99.90
74869;DHT22;63419;42.262;12.210;2023-02-28T16:10:12;9.60;99.90
74869;DHT22;63419;42.262;12.210;2023-02-28T16:12:41;9.60;99.90
74869;DHT22;63419;42.262;12.210;2023-02-28T16:17:47;9.60;99.90
74869;DHT22;63419;42.262;12.210;2023-02-28T16:20:23;9.60;99.90
74869;DHT22;63419;42.262;12.210;2023-02-28T16:23:01;9.50;99.90
74869;DHT22;63419;42.262;12.210;2023-02-28T16:25:39;9.60;99.90
74869;DHT22;63419;42.262;12.210;2023-02-28T16:28:18;9.60;99.90
74869;DHT22;63419;42.262;12.210;2023-02-28T16:30:52;9.60;99.90
74869;DHT22;63419;42.262;12.210;2023-02-28T16:33:23;9.50;99.90
74869;DHT22;63419;42.262;12.210;2023-02-28T16:35:54;9.50;99.90
74869;DHT22;63419;42.262;12.210;2023-02-28T16:38:25;9.50;99.90
74869;DHT22;63419;42.262;12.210;2023-02-28T16:40:56;9.40;99.90
74869;DHT22;63419;42.262;12.210;2023-02-28T16:43:35;9.40;99.90
74869;DHT22;63419;42.262;12.210;2023-02-28T16:46:10;9.30;99.90
74869;DHT22;63419;42.262;12.210;2023-02-28T16:48:45;9.20;99.90
74869;DHT22;63419;42.262;12.210;2023-02-28T16:51:20;9.20;99.90
74869;DHT22;63419;42.262;12.210;2023-02-28T16:53:49;9.00;99.90
74869;DHT22;63419;42.262;12.210;2023-02-28T16:56:22;8.80;99.90
74869;DHT22;63419;42.262;12.210;2023-02-28T16:58:59;8.60;99.90
74869;DHT22;63419;42.262;12.210;2023-02-28T17:01:35;8.50;99.90
74869;DHT22;63419;42.262;12.210;2023-02-28T17:04:03;8.40;99.90
74869;DHT22;63419;42.262;12.210;2023-02-28T17:06:32;8.40;99.90
74869;DHT22;63419;42.262;12.210;2023-02-28T17:09:00;8.20;99.90
74869;DHT22;63419;42.262;12.210;2023-02-28T17:11:27;8.20;99.90
74869;DHT22;63419;42.262;12.210;2023-02-28T17:13:55;8.20;99.90
74869;DHT22;63419;42.262;12.210;2023-02-28T17:16:30;8.20;99.90
74869;DHT22;63419;42.262;12.210;2023-02-28T17:19:06;8.20;99.90
74869;DHT22;63419;42.262;12.210;2023-02-28T17:21:39;8.20;99.90
74869;DHT22;63419;42.262;12.210;2023-02-28T17:24:09;8.20;99.90
74869;DHT22;63419;42.262;12.210;2023-02-28T17:26:45;8.30;99.90
74869;DHT22;63419;42.262;12.210;2023-02-28T17:29:19;8.20;99.90
74869;DHT22;63419;42.262;12.210;2023-02-28T17:31:56;8.30;99.90
74869;DHT22;63419;42.262;12.210;2023-02-28T17:34:29;8.30;99.90
74869;DHT22;63419;42.262;12.210;2023-02-28T17:37:00;8.30;99.90
74869;DHT22;63419;42.262;12.210;2023-02-28T17:39:30;8.30;99.90
74869;DHT22;63419;42.262;12.210;2023-02-28T17:42:00;8.30;99.90
74869;DHT22;63419;42.262;12.210;2023-02-28T17:44:27;8.30;99.90
74869;DHT22;63419;42.262;12.210;2023-02-28T17:46:56;8.30;99.90
74869;DHT22;63419;42.262;12.210;2023-02-28T17:49:26;8.30;99.90
74869;DHT22;63419;42.262;12.210;2023-02-28T17:51:59;8.30;99.90
74869;DHT22;63419;42.262;12.210;2023-02-28T17:54:32;8.20;99.90
74869;DHT22;63419;42.262;12.210;2023-02-28T17:57:05;8.20;99.90
74869;DHT22;63419;42.262;12.210;2023-02-28T17:59:37;8.20;99.90
74869;DHT22;63419;42.262;12.210;2023-02-28T18:02:11;8.10;99.90
74869;DHT22;63419;42.262;12.210;2023-02-28T18:04:40;8.00;99.90
74869;DHT22;63419;42.262;12.210;2023-02-28T18:07:10;8.00;99.90
74869;DHT22;63419;42.262;12.210;2023-02-28T18:09:39;8.00;99.90
74869;DHT22;63419;42.262;12.210;2023-02-28T18:12:11;8.00;99.90
74869;DHT22;63419;42.262;12.210;2023-02-28T18:14:38;8.00;99.90
74869;DHT22;63419;42.262;12.210;2023-02-28T18:17:05;8.00;99.90
74869;DHT22;63419;42.262;12.210;2023-02-28T18:19:34;8.00;99.90
74869;DHT22;63419;42.262;12.210;2023-02-28T18:22:07;8.00;99.90
74869;DHT22;63419;42.262;12.210;2023-02-28T18:24:39;7.90;99.90
74869;DHT22;63419;42.262;12.210;2023-02-28T18:27:08;7.90;99.90
74869;DHT22;63419;42.262;12.210;2023-02-28T18:29:39;7.90;99.90
74869;DHT22;63419;42.262;12.210;2023-02-28T18:32:17;7.90;99.90
74869;DHT22;63419;42.262;12.210;2023-02-28T18:34:46;7.90;99.90
74869;DHT22;63419;42.262;12.210;2023-02-28T18:37:15;7.80;99.90